sensor_id;sensor_type;location;lat;lon;timestamp;P1;durP1;ratioP1;P2;durP2;ratioP2
72676;SDS011;60755;51.374;10.662;2022-10-23T00:00:41;8.73;;;4.37;;
72676;SDS011;60755;51.374;10.662;2022-10-23T00:03:07;8.17;;;4.13;;
72676;SDS011;60755;51.374;10.662;2022-10-23T00:05:37;6.40;;;4.30;;
72676;SDS011;60755;51.374;10.662;2022-10-23T00:08:05;3.80;;;3.50;;
72676;SDS011;60755;51.374;10.662;2022-10-23T00:10:32;8.20;;;3.97;;
72676;SDS011;60755;51.374;10.662;2022-10-23T00:12:59;10.07;;;4.00;;
72676;SDS011;60755;51.374;10.662;2022-10-23T00:15:25;5.53;;;3.77;;
72676;SDS011;60755;51.374;10.662;2022-10-23T00:17:52;3.40;;;3.10;;
72676;SDS011;60755;51.374;10.662;2022-10-23T00:20:19;7.33;;;3.80;;
72676;SDS011;60755;51.374;10.662;2022-10-23T00:22:47;4.03;;;3.47;;
72676;SDS011;60755;51.374;10.662;2022-10-23T00:25:14;7.47;;;3.43;;
72676;SDS011;60755;51.374;10.662;2022-10-23T00:27:40;4.27;;;3.10;;
72676;SDS011;60755;51.374;10.662;2022-10-23T00:30:07;4.33;;;3.23;;
72676;SDS011;60755;51.374;10.662;2022-10-23T00:32:34;5.93;;;3.40;;
72676;SDS011;60755;51.374;10.662;2022-10-23T00:35:01;4.13;;;3.53;;
72676;SDS011;60755;51.374;10.662;2022-10-23T00:37:27;4.97;;;3.27;;
72676;SDS011;60755;51.374;10.662;2022-10-23T00:39:56;4.33;;;3.40;;
72676;SDS011;60755;51.374;10.662;2022-10-23T00:42:22;5.37;;;3.23;;
72676;SDS011;60755;51.374;10.662;2022-10-23T00:47:37;10.33;;;4.17;;
72676;SDS011;60755;51.374;10.662;2022-10-23T00:50:04;6.73;;;3.97;;
72676;SDS011;60755;51.374;10.662;2022-10-23T00:52:32;3.87;;;3.57;;
72676;SDS011;60755;51.374;10.662;2022-10-23T00:55:06;5.87;;;4.07;;
72676;SDS011;60755;51.374;10.662;2022-10-23T00:57:33;5.60;;;4.13;;
72676;SDS011;60755;51.374;10.662;2022-10-23T00:59:59;7.07;;;4.30;;
72676;SDS011;60755;51.374;10.662;2022-10-23T01:02:26;5.43;;;3.77;;
72676;SDS011;60755;51.374;10.662;2022-10-23T01:04:52;3.67;;;3.43;;
72676;SDS011;60755;51.374;10.662;2022-10-23T01:07:20;4.47;;;3.60;;
72676;SDS011;60755;51.374;10.662;2022-10-23T01:09:54;4.67;;;4.07;;
72676;SDS011;60755;51.374;10.662;2022-10-23T01:12:30;4.07;;;3.67;;
72676;SDS011;60755;51.374;10.662;2022-10-23T01:15:05;8.30;;;4.13;;
72676;SDS011;60755;51.374;10.662;2022-10-23T01:17:39;4.50;;;4.07;;
72676;SDS011;60755;51.374;10.662;2022-10-23T01:20:13;6.10;;;3.83;;
72676;SDS011;60755;51.374;10.662;2022-10-23T01:22:56;13.00;;;7.07;;
72676;SDS011;60755;51.374;10.662;2022-10-23T01:25:39;15.90;;;7.63;;
72676;SDS011;60755;51.374;10.662;2022-10-23T01:28:29;7.03;;;4.83;;
72676;SDS011;60755;51.374;10.662;2022-10-23T01:30:59;11.00;;;6.43;;
72676;SDS011;60755;51.374;10.662;2022-10-23T01:33:30;9.27;;;6.50;;
72676;SDS011;60755;51.374;10.662;2022-10-23T01:36:04;5.73;;;4.40;;
72676;SDS011;60755;51.374;10.662;2022-10-23T01:38:38;7.00;;;5.40;;
72676;SDS011;60755;51.374;10.662;2022-10-23T01:41:08;7.27;;;5.47;;
72676;SDS011;60755;51.374;10.662;2022-10-23T01:43:39;5.60;;;5.00;;
72676;SDS011;60755;51.374;10.662;2022-10-23T01:46:09;14.00;;;9.73;;
72676;SDS011;60755;51.374;10.662;2022-10-23T01:48:40;5.43;;;4.30;;
72676;SDS011;60755;51.374;10.662;2022-10-23T01:51:11;6.07;;;4.40;;
72676;SDS011;60755;51.374;10.662;2022-10-23T01:53:40;6.50;;;4.70;;
72676;SDS011;60755;51.374;10.662;2022-10-23T01:56:10;6.57;;;5.03;;
72676;SDS011;60755;51.374;10.662;2022-10-23T01:58:41;6.37;;;4.90;;
72676;SDS011;60755;51.374;10.662;2022-10-23T02:01:11;4.93;;;4.33;;
72676;SDS011;60755;51.374;10.662;2022-10-23T02:03:40;4.43;;;3.63;;
72676;SDS011;60755;51.374;10.662;2022-10-23T02:06:09;5.90;;;3.97;;
72676;SDS011;60755;51.374;10.662;2022-10-23T02:08:36;8.90;;;4.03;;
72676;SDS011;60755;51.374;10.662;2022-10-23T02:11:03;4.10;;;3.70;;
72676;SDS011;60755;51.374;10.662;2022-10-23T02:13:33;5.87;;;4.07;;
72676;SDS011;60755;51.374;10.662;2022-10-23T02:16:07;4.37;;;3.97;;
72676;SDS011;60755;51.374;10.662;2022-10-23T02:18:45;5.20;;;4.00;;
72676;SDS011;60755;51.374;10.662;2022-10-23T02:21:20;4.30;;;4.00;;
72676;SDS011;60755;51.374;10.662;2022-10-23T02:23:53;6.80;;;4.57;;
72676;SDS011;60755;51.374;10.662;2022-10-23T02:26:25;8.10;;;4.50;;
72676;SDS011;60755;51.374;10.662;2022-10-23T02:28:56;10.27;;;5.47;;
72676;SDS011;60755;51.374;10.662;2022-10-23T02:31:28;9.00;;;6.07;;
72676;SDS011;60755;51.374;10.662;2022-10-23T02:33:54;10.70;;;5.90;;
72676;SDS011;60755;51.374;10.662;2022-10-23T02:36:21;11.10;;;5.40;;
72676;SDS011;60755;51.374;10.662;2022-10-23T02:38:47;11.50;;;6.70;;
72676;SDS011;60755;51.374;10.662;2022-10-23T02:41:19;14.27;;;6.67;;
72676;SDS011;60755;51.374;10.662;2022-10-23T02:44:09;8.07;;;6.13;;
72676;SDS011;60755;51.374;10.662;2022-10-23T02:46:48;25.47;;;7.27;;
72676;SDS011;60755;51.374;10.662;2022-10-23T02:49:19;73.07;;;8.07;;
72676;SDS011;60755;51.374;10.662;2022-10-23T02:51:56;68.33;;;8.13;;
72676;SDS011;60755;51.374;10.662;2022-10-23T02:54:30;81.90;;;7.63;;
72676;SDS011;60755;51.374;10.662;2022-10-23T02:57:10;53.53;;;6.17;;
72676;SDS011;60755;51.374;10.662;2022-10-23T02:59:46;30.20;;;6.30;;
72676;SDS011;60755;51.374;10.662;2022-10-23T03:02:20;31.27;;;6.17;;
72676;SDS011;60755;51.374;10.662;2022-10-23T03:04:50;33.33;;;7.23;;
72676;SDS011;60755;51.374;10.662;2022-10-23T03:07:19;20.10;;;5.67;;
72676;SDS011;60755;51.374;10.662;2022-10-23T03:09:46;31.63;;;4.87;;
72676;SDS011;60755;51.374;10.662;2022-10-23T03:12:12;29.97;;;4.90;;
72676;SDS011;60755;51.374;10.662;2022-10-23T03:14:39;28.57;;;4.93;;
72676;SDS011;60755;51.374;10.662;2022-10-23T03:17:06;24.50;;;4.57;;
72676;SDS011;60755;51.374;10.662;2022-10-23T03:19:33;11.97;;;5.53;;
72676;SDS011;60755;51.374;10.662;2022-10-23T03:22:00;24.33;;;5.20;;
72676;SDS011;60755;51.374;10.662;2022-10-23T03:24:27;13.43;;;4.47;;
72676;SDS011;60755;51.374;10.662;2022-10-23T03:26:53;24.70;;;4.53;;
72676;SDS011;60755;51.374;10.662;2022-10-23T03:29:20;22.87;;;4.80;;
72676;SDS011;60755;51.374;10.662;2022-10-23T03:31:46;25.97;;;5.07;;
72676;SDS011;60755;51.374;10.662;2022-10-23T03:34:13;4.77;;;4.20;;
72676;SDS011;60755;51.374;10.662;2022-10-23T03:36:41;11.47;;;4.23;;
72676;SDS011;60755;51.374;10.662;2022-10-23T03:39:07;14.43;;;3.97;;
72676;SDS011;60755;51.374;10.662;2022-10-23T03:41:34;7.10;;;4.20;;
72676;SDS011;60755;51.374;10.662;2022-10-23T03:44:01;12.33;;;4.13;;
72676;SDS011;60755;51.374;10.662;2022-10-23T03:46:27;10.10;;;4.20;;
72676;SDS011;60755;51.374;10.662;2022-10-23T03:48:54;8.03;;;4.17;;
72676;SDS011;60755;51.374;10.662;2022-10-23T03:51:23;15.03;;;3.90;;
72676;SDS011;60755;51.374;10.662;2022-10-23T03:53:51;10.00;;;3.93;;
72676;SDS011;60755;51.374;10.662;2022-10-23T03:56:17;7.33;;;3.60;;
72676;SDS011;60755;51.374;10.662;2022-10-23T03:58:44;6.60;;;3.63;;
72676;SDS011;60755;51.374;10.662;2022-10-23T04:01:10;9.83;;;3.87;;
72676;SDS011;60755;51.374;10.662;2022-10-23T04:03:37;11.20;;;4.00;;
72676;SDS011;60755;51.374;10.662;2022-10-23T04:06:03;7.33;;;4.57;;
72676;SDS011;60755;51.374;10.662;2022-10-23T04:08:30;4.73;;;4.17;;
72676;SDS011;60755;51.374;10.662;2022-10-23T04:10:58;19.33;;;4.13;;
72676;SDS011;60755;51.374;10.662;2022-10-23T04:13:25;25.63;;;4.73;;
72676;SDS011;60755;51.374;10.662;2022-10-23T04:15:51;38.10;;;4.27;;
72676;SDS011;60755;51.374;10.662;2022-10-23T04:18:18;23.83;;;4.53;;
72676;SDS011;60755;51.374;10.662;2022-10-23T04:20:45;41.60;;;4.63;;
72676;SDS011;60755;51.374;10.662;2022-10-23T04:23:12;26.77;;;4.30;;
72676;SDS011;60755;51.374;10.662;2022-10-23T04:25:39;15.50;;;4.70;;
72676;SDS011;60755;51.374;10.662;2022-10-23T04:28:06;11.83;;;4.20;;
72676;SDS011;60755;51.374;10.662;2022-10-23T04:30:33;20.57;;;6.47;;
72676;SDS011;60755;51.374;10.662;2022-10-23T04:33:00;12.03;;;4.23;;
72676;SDS011;60755;51.374;10.662;2022-10-23T04:35:27;14.23;;;4.97;;
72676;SDS011;60755;51.374;10.662;2022-10-23T04:37:54;13.17;;;8.47;;
72676;SDS011;60755;51.374;10.662;2022-10-23T04:40:21;60.80;;;27.23;;
72676;SDS011;60755;51.374;10.662;2022-10-23T04:42:47;59.57;;;22.07;;
72676;SDS011;60755;51.374;10.662;2022-10-23T04:45:15;63.67;;;25.93;;
72676;SDS011;60755;51.374;10.662;2022-10-23T04:47:42;46.87;;;20.10;;
72676;SDS011;60755;51.374;10.662;2022-10-23T04:50:08;45.33;;;20.70;;
72676;SDS011;60755;51.374;10.662;2022-10-23T04:52:35;33.27;;;17.43;;
72676;SDS011;60755;51.374;10.662;2022-10-23T04:55:01;33.17;;;15.17;;
72676;SDS011;60755;51.374;10.662;2022-10-23T04:57:28;45.80;;;14.40;;
72676;SDS011;60755;51.374;10.662;2022-10-23T04:59:55;82.83;;;16.50;;
72676;SDS011;60755;51.374;10.662;2022-10-23T05:02:23;37.17;;;13.17;;
72676;SDS011;60755;51.374;10.662;2022-10-23T05:04:49;52.20;;;14.53;;
72676;SDS011;60755;51.374;10.662;2022-10-23T05:07:16;50.00;;;14.87;;
72676;SDS011;60755;51.374;10.662;2022-10-23T05:09:42;55.63;;;16.17;;
72676;SDS011;60755;51.374;10.662;2022-10-23T05:12:09;57.67;;;14.90;;
72676;SDS011;60755;51.374;10.662;2022-10-23T05:14:35;62.63;;;13.43;;
72676;SDS011;60755;51.374;10.662;2022-10-23T05:17:03;74.27;;;14.27;;
72676;SDS011;60755;51.374;10.662;2022-10-23T05:19:36;63.87;;;15.57;;
72676;SDS011;60755;51.374;10.662;2022-10-23T05:22:08;45.13;;;14.17;;
72676;SDS011;60755;51.374;10.662;2022-10-23T05:24:35;57.47;;;20.20;;
72676;SDS011;60755;51.374;10.662;2022-10-23T05:27:02;94.30;;;25.03;;
72676;SDS011;60755;51.374;10.662;2022-10-23T05:29:28;110.97;;;26.70;;
72676;SDS011;60755;51.374;10.662;2022-10-23T05:31:56;122.67;;;30.63;;
72676;SDS011;60755;51.374;10.662;2022-10-23T05:34:26;125.43;;;28.93;;
72676;SDS011;60755;51.374;10.662;2022-10-23T05:36:57;102.63;;;26.47;;
72676;SDS011;60755;51.374;10.662;2022-10-23T05:39:24;94.03;;;25.73;;
72676;SDS011;60755;51.374;10.662;2022-10-23T05:41:50;91.97;;;27.00;;
72676;SDS011;60755;51.374;10.662;2022-10-23T05:44:18;81.57;;;26.53;;
72676;SDS011;60755;51.374;10.662;2022-10-23T05:46:45;68.87;;;25.23;;
72676;SDS011;60755;51.374;10.662;2022-10-23T05:49:12;75.57;;;22.93;;
72676;SDS011;60755;51.374;10.662;2022-10-23T05:51:39;49.97;;;18.67;;
72676;SDS011;60755;51.374;10.662;2022-10-23T05:54:07;52.90;;;19.93;;
72676;SDS011;60755;51.374;10.662;2022-10-23T05:56:33;47.17;;;19.67;;
72676;SDS011;60755;51.374;10.662;2022-10-23T05:59:01;55.77;;;16.30;;
72676;SDS011;60755;51.374;10.662;2022-10-23T06:01:27;48.70;;;16.77;;
72676;SDS011;60755;51.374;10.662;2022-10-23T06:03:54;34.97;;;15.00;;
72676;SDS011;60755;51.374;10.662;2022-10-23T06:06:21;54.17;;;25.20;;
72676;SDS011;60755;51.374;10.662;2022-10-23T06:08:47;61.43;;;25.97;;
72676;SDS011;60755;51.374;10.662;2022-10-23T06:11:15;57.40;;;28.97;;
72676;SDS011;60755;51.374;10.662;2022-10-23T06:13:42;61.80;;;26.97;;
72676;SDS011;60755;51.374;10.662;2022-10-23T06:16:10;56.00;;;20.80;;
72676;SDS011;60755;51.374;10.662;2022-10-23T06:18:38;45.53;;;23.60;;
72676;SDS011;60755;51.374;10.662;2022-10-23T06:21:05;67.37;;;32.93;;
72676;SDS011;60755;51.374;10.662;2022-10-23T06:23:32;58.53;;;32.70;;
72676;SDS011;60755;51.374;10.662;2022-10-23T06:25:59;39.53;;;21.23;;
72676;SDS011;60755;51.374;10.662;2022-10-23T06:28:27;38.40;;;18.43;;
72676;SDS011;60755;51.374;10.662;2022-10-23T06:30:54;36.10;;;19.00;;
72676;SDS011;60755;51.374;10.662;2022-10-23T06:33:20;33.43;;;19.70;;
72676;SDS011;60755;51.374;10.662;2022-10-23T06:35:47;33.60;;;20.70;;
72676;SDS011;60755;51.374;10.662;2022-10-23T06:38:13;49.17;;;22.53;;
72676;SDS011;60755;51.374;10.662;2022-10-23T06:40:40;31.57;;;19.70;;
72676;SDS011;60755;51.374;10.662;2022-10-23T06:43:09;43.27;;;20.43;;
72676;SDS011;60755;51.374;10.662;2022-10-23T06:45:37;41.83;;;21.17;;
72676;SDS011;60755;51.374;10.662;2022-10-23T06:48:04;44.47;;;19.37;;
72676;SDS011;60755;51.374;10.662;2022-10-23T06:50:30;56.03;;;18.10;;
72676;SDS011;60755;51.374;10.662;2022-10-23T06:52:57;45.50;;;17.30;;
72676;SDS011;60755;51.374;10.662;2022-10-23T06:55:24;29.80;;;16.83;;
72676;SDS011;60755;51.374;10.662;2022-10-23T06:57:50;38.13;;;16.67;;
72676;SDS011;60755;51.374;10.662;2022-10-23T07:00:19;136.37;;;82.90;;
72676;SDS011;60755;51.374;10.662;2022-10-23T07:02:48;217.50;;;112.90;;
72676;SDS011;60755;51.374;10.662;2022-10-23T07:05:15;118.30;;;67.87;;
72676;SDS011;60755;51.374;10.662;2022-10-23T07:07:42;43.77;;;28.37;;
72676;SDS011;60755;51.374;10.662;2022-10-23T07:10:09;33.60;;;21.80;;
72676;SDS011;60755;51.374;10.662;2022-10-23T07:12:35;22.27;;;16.23;;
72676;SDS011;60755;51.374;10.662;2022-10-23T07:15:02;15.13;;;10.47;;
72676;SDS011;60755;51.374;10.662;2022-10-23T07:17:29;13.40;;;10.23;;
72676;SDS011;60755;51.374;10.662;2022-10-23T07:19:57;19.47;;;13.40;;
72676;SDS011;60755;51.374;10.662;2022-10-23T07:22:23;17.13;;;12.07;;
72676;SDS011;60755;51.374;10.662;2022-10-23T07:24:50;15.47;;;12.17;;
72676;SDS011;60755;51.374;10.662;2022-10-23T07:27:16;22.93;;;15.90;;
72676;SDS011;60755;51.374;10.662;2022-10-23T07:29:43;23.27;;;15.70;;
72676;SDS011;60755;51.374;10.662;2022-10-23T07:32:09;16.43;;;12.70;;
72676;SDS011;60755;51.374;10.662;2022-10-23T07:34:36;20.93;;;14.03;;
72676;SDS011;60755;51.374;10.662;2022-10-23T07:37:04;17.97;;;13.33;;
72676;SDS011;60755;51.374;10.662;2022-10-23T07:39:31;18.27;;;12.67;;
72676;SDS011;60755;51.374;10.662;2022-10-23T07:41:57;10.83;;;9.67;;
72676;SDS011;60755;51.374;10.662;2022-10-23T07:44:24;8.87;;;7.47;;
72676;SDS011;60755;51.374;10.662;2022-10-23T07:46:51;9.30;;;7.90;;
72676;SDS011;60755;51.374;10.662;2022-10-23T07:49:17;8.73;;;7.83;;
72676;SDS011;60755;51.374;10.662;2022-10-23T07:51:44;9.17;;;8.27;;
72676;SDS011;60755;51.374;10.662;2022-10-23T07:54:11;9.30;;;8.07;;
72676;SDS011;60755;51.374;10.662;2022-10-23T07:56:38;6.90;;;6.20;;
72676;SDS011;60755;51.374;10.662;2022-10-23T07:59:04;8.03;;;5.60;;
72676;SDS011;60755;51.374;10.662;2022-10-23T08:01:31;5.83;;;5.33;;
72676;SDS011;60755;51.374;10.662;2022-10-23T08:03:59;5.30;;;4.80;;
72676;SDS011;60755;51.374;10.662;2022-10-23T08:06:26;6.53;;;5.83;;
72676;SDS011;60755;51.374;10.662;2022-10-23T08:08:53;21.80;;;15.20;;
72676;SDS011;60755;51.374;10.662;2022-10-23T08:11:21;13.97;;;11.13;;
72676;SDS011;60755;51.374;10.662;2022-10-23T08:13:51;7.30;;;6.70;;
72676;SDS011;60755;51.374;10.662;2022-10-23T08:16:18;5.30;;;4.80;;
72676;SDS011;60755;51.374;10.662;2022-10-23T08:18:44;6.07;;;4.37;;
72676;SDS011;60755;51.374;10.662;2022-10-23T08:21:13;6.67;;;3.87;;
72676;SDS011;60755;51.374;10.662;2022-10-23T08:23:41;6.95;;;3.90;;
72676;SDS011;60755;51.374;10.662;2022-10-23T08:26:08;4.40;;;4.00;;
72676;SDS011;60755;51.374;10.662;2022-10-23T08:28:36;6.10;;;4.20;;
72676;SDS011;60755;51.374;10.662;2022-10-23T08:31:06;5.00;;;4.60;;
72676;SDS011;60755;51.374;10.662;2022-10-23T08:33:34;3.85;;;3.45;;
72676;SDS011;60755;51.374;10.662;2022-10-23T08:36:00;6.20;;;3.55;;
72676;SDS011;60755;51.374;10.662;2022-10-23T08:38:27;4.15;;;2.97;;
72676;SDS011;60755;51.374;10.662;2022-10-23T08:40:53;4.47;;;3.55;;
72676;SDS011;60755;51.374;10.662;2022-10-23T08:43:21;5.82;;;3.50;;
72676;SDS011;60755;51.374;10.662;2022-10-23T08:45:57;4.77;;;3.30;;
72676;SDS011;60755;51.374;10.662;2022-10-23T08:48:27;3.97;;;3.63;;
72676;SDS011;60755;51.374;10.662;2022-10-23T08:50:58;6.00;;;3.40;;
72676;SDS011;60755;51.374;10.662;2022-10-23T08:53:31;5.38;;;2.90;;
72676;SDS011;60755;51.374;10.662;2022-10-23T08:56:05;2.85;;;2.67;;
72676;SDS011;60755;51.374;10.662;2022-10-23T08:58:38;3.58;;;3.28;;
72676;SDS011;60755;51.374;10.662;2022-10-23T09:01:25;2.90;;;2.70;;
72676;SDS011;60755;51.374;10.662;2022-10-23T09:03:58;3.95;;;2.80;;
72676;SDS011;60755;51.374;10.662;2022-10-23T09:06:28;3.45;;;2.85;;
72676;SDS011;60755;51.374;10.662;2022-10-23T09:09:03;4.63;;;3.10;;
72676;SDS011;60755;51.374;10.662;2022-10-23T09:11:43;5.63;;;3.08;;
72676;SDS011;60755;51.374;10.662;2022-10-23T09:14:26;4.53;;;2.88;;
72676;SDS011;60755;51.374;10.662;2022-10-23T09:17:09;4.10;;;2.72;;
72676;SDS011;60755;51.374;10.662;2022-10-23T09:19:41;3.03;;;2.90;;
72676;SDS011;60755;51.374;10.662;2022-10-23T09:22:10;2.67;;;2.53;;
72676;SDS011;60755;51.374;10.662;2022-10-23T09:24:40;3.00;;;2.72;;
72676;SDS011;60755;51.374;10.662;2022-10-23T09:27:08;9.25;;;2.63;;
72676;SDS011;60755;51.374;10.662;2022-10-23T09:29:45;3.72;;;2.70;;
72676;SDS011;60755;51.374;10.662;2022-10-23T09:32:14;3.70;;;2.75;;
72676;SDS011;60755;51.374;10.662;2022-10-23T09:34:49;2.40;;;2.30;;
72676;SDS011;60755;51.374;10.662;2022-10-23T09:37:20;7.63;;;2.55;;
72676;SDS011;60755;51.374;10.662;2022-10-23T09:39:48;3.92;;;2.67;;
72676;SDS011;60755;51.374;10.662;2022-10-23T09:42:25;3.13;;;2.60;;
72676;SDS011;60755;51.374;10.662;2022-10-23T09:44:53;2.70;;;2.50;;
72676;SDS011;60755;51.374;10.662;2022-10-23T09:47:22;3.88;;;2.55;;
72676;SDS011;60755;51.374;10.662;2022-10-23T09:49:51;3.13;;;2.55;;
72676;SDS011;60755;51.374;10.662;2022-10-23T09:52:21;4.35;;;2.35;;
72676;SDS011;60755;51.374;10.662;2022-10-23T09:54:50;4.03;;;2.53;;
72676;SDS011;60755;51.374;10.662;2022-10-23T09:57:21;2.78;;;2.58;;
72676;SDS011;60755;51.374;10.662;2022-10-23T09:59:50;6.95;;;2.80;;
72676;SDS011;60755;51.374;10.662;2022-10-23T10:02:20;2.33;;;2.10;;
72676;SDS011;60755;51.374;10.662;2022-10-23T10:04:52;2.83;;;2.55;;
72676;SDS011;60755;51.374;10.662;2022-10-23T10:07:19;2.80;;;2.13;;
72676;SDS011;60755;51.374;10.662;2022-10-23T10:09:47;2.42;;;2.20;;
72676;SDS011;60755;51.374;10.662;2022-10-23T10:12:18;3.13;;;2.25;;
72676;SDS011;60755;51.374;10.662;2022-10-23T10:14:57;6.38;;;2.90;;
72676;SDS011;60755;51.374;10.662;2022-10-23T10:17:33;3.08;;;2.17;;
72676;SDS011;60755;51.374;10.662;2022-10-23T10:20:09;2.42;;;2.33;;
72676;SDS011;60755;51.374;10.662;2022-10-23T10:22:49;3.00;;;2.20;;
72676;SDS011;60755;51.374;10.662;2022-10-23T10:25:20;5.32;;;2.25;;
72676;SDS011;60755;51.374;10.662;2022-10-23T10:27:55;2.53;;;2.17;;
72676;SDS011;60755;51.374;10.662;2022-10-23T10:30:33;3.17;;;2.10;;
72676;SDS011;60755;51.374;10.662;2022-10-23T10:33:11;2.10;;;2.00;;
72676;SDS011;60755;51.374;10.662;2022-10-23T10:35:48;3.75;;;2.13;;
72676;SDS011;60755;51.374;10.662;2022-10-23T10:38:27;2.45;;;2.25;;
72676;SDS011;60755;51.374;10.662;2022-10-23T10:41:11;2.30;;;2.20;;
72676;SDS011;60755;51.374;10.662;2022-10-23T10:44:12;3.13;;;2.10;;
72676;SDS011;60755;51.374;10.662;2022-10-23T10:46:50;3.97;;;2.65;;
72676;SDS011;60755;51.374;10.662;2022-10-23T10:49:25;2.10;;;1.88;;
72676;SDS011;60755;51.374;10.662;2022-10-23T10:52:01;1.80;;;1.70;;
72676;SDS011;60755;51.374;10.662;2022-10-23T10:54:39;1.92;;;1.83;;
72676;SDS011;60755;51.374;10.662;2022-10-23T10:57:19;2.58;;;2.03;;
72676;SDS011;60755;51.374;10.662;2022-10-23T10:59:54;1.90;;;1.80;;
72676;SDS011;60755;51.374;10.662;2022-10-23T11:02:26;2.00;;;1.90;;
72676;SDS011;60755;51.374;10.662;2022-10-23T11:04:58;4.28;;;1.90;;
72676;SDS011;60755;51.374;10.662;2022-10-23T11:07:33;5.15;;;2.10;;
72676;SDS011;60755;51.374;10.662;2022-10-23T11:10:02;2.50;;;2.30;;
72676;SDS011;60755;51.374;10.662;2022-10-23T11:12:39;3.28;;;2.45;;
72676;SDS011;60755;51.374;10.662;2022-10-23T11:15:11;3.65;;;2.10;;
72676;SDS011;60755;51.374;10.662;2022-10-23T11:17:39;2.38;;;2.17;;
72676;SDS011;60755;51.374;10.662;2022-10-23T11:20:15;2.20;;;2.10;;
72676;SDS011;60755;51.374;10.662;2022-10-23T11:22:54;3.00;;;2.20;;
72676;SDS011;60755;51.374;10.662;2022-10-23T11:25:41;2.33;;;2.17;;
72676;SDS011;60755;51.374;10.662;2022-10-23T11:28:27;3.72;;;2.20;;
72676;SDS011;60755;51.374;10.662;2022-10-23T11:31:10;2.10;;;2.00;;
72676;SDS011;60755;51.374;10.662;2022-10-23T11:33:51;3.20;;;1.98;;
72676;SDS011;60755;51.374;10.662;2022-10-23T11:36:40;3.88;;;2.20;;
72676;SDS011;60755;51.374;10.662;2022-10-23T11:39:14;3.13;;;2.05;;
72676;SDS011;60755;51.374;10.662;2022-10-23T11:41:48;2.85;;;2.30;;
72676;SDS011;60755;51.374;10.662;2022-10-23T11:44:25;4.93;;;2.30;;
72676;SDS011;60755;51.374;10.662;2022-10-23T11:47:00;2.95;;;1.85;;
72676;SDS011;60755;51.374;10.662;2022-10-23T11:49:28;2.05;;;1.95;;
72676;SDS011;60755;51.374;10.662;2022-10-23T11:52:00;2.97;;;2.13;;
72676;SDS011;60755;51.374;10.662;2022-10-23T11:54:29;1.85;;;1.80;;
72676;SDS011;60755;51.374;10.662;2022-10-23T11:57:09;2.25;;;2.13;;
72676;SDS011;60755;51.374;10.662;2022-10-23T11:59:40;3.17;;;2.08;;
72676;SDS011;60755;51.374;10.662;2022-10-23T12:02:24;2.58;;;2.00;;
72676;SDS011;60755;51.374;10.662;2022-10-23T12:04:56;2.40;;;2.20;;
72676;SDS011;60755;51.374;10.662;2022-10-23T12:07:27;6.72;;;2.00;;
72676;SDS011;60755;51.374;10.662;2022-10-23T12:09:56;2.65;;;2.13;;
72676;SDS011;60755;51.374;10.662;2022-10-23T12:12:26;2.78;;;2.17;;
72676;SDS011;60755;51.374;10.662;2022-10-23T12:15:05;2.58;;;2.35;;
72676;SDS011;60755;51.374;10.662;2022-10-23T12:17:47;5.25;;;2.15;;
72676;SDS011;60755;51.374;10.662;2022-10-23T12:20:17;2.97;;;2.20;;
72676;SDS011;60755;51.374;10.662;2022-10-23T12:23:02;2.50;;;2.00;;
72676;SDS011;60755;51.374;10.662;2022-10-23T12:25:41;2.15;;;2.05;;
72676;SDS011;60755;51.374;10.662;2022-10-23T12:28:19;1.83;;;1.73;;
72676;SDS011;60755;51.374;10.662;2022-10-23T12:30:57;1.67;;;1.58;;
72676;SDS011;60755;51.374;10.662;2022-10-23T12:33:37;2.55;;;2.38;;
72676;SDS011;60755;51.374;10.662;2022-10-23T12:36:18;2.92;;;2.00;;
72676;SDS011;60755;51.374;10.662;2022-10-23T12:39:01;3.88;;;2.08;;
72676;SDS011;60755;51.374;10.662;2022-10-23T12:41:27;1.90;;;1.80;;
72676;SDS011;60755;51.374;10.662;2022-10-23T12:43:56;2.10;;;2.00;;
72676;SDS011;60755;51.374;10.662;2022-10-23T12:46:29;2.10;;;2.00;;
72676;SDS011;60755;51.374;10.662;2022-10-23T12:48:59;6.13;;;2.40;;
72676;SDS011;60755;51.374;10.662;2022-10-23T12:51:28;3.33;;;2.30;;
72676;SDS011;60755;51.374;10.662;2022-10-23T12:53:56;2.78;;;2.60;;
72676;SDS011;60755;51.374;10.662;2022-10-23T12:56:24;2.13;;;2.00;;
72676;SDS011;60755;51.374;10.662;2022-10-23T12:58:53;2.53;;;2.33;;
72676;SDS011;60755;51.374;10.662;2022-10-23T13:01:22;2.30;;;2.10;;
72676;SDS011;60755;51.374;10.662;2022-10-23T13:03:51;2.95;;;2.60;;
72676;SDS011;60755;51.374;10.662;2022-10-23T13:06:23;3.88;;;3.25;;
72676;SDS011;60755;51.374;10.662;2022-10-23T13:08:51;2.85;;;2.65;;
72676;SDS011;60755;51.374;10.662;2022-10-23T13:11:18;4.00;;;2.65;;
72676;SDS011;60755;51.374;10.662;2022-10-23T13:13:47;3.45;;;2.15;;
72676;SDS011;60755;51.374;10.662;2022-10-23T13:16:15;5.88;;;2.28;;
72676;SDS011;60755;51.374;10.662;2022-10-23T13:18:42;3.00;;;2.20;;
72676;SDS011;60755;51.374;10.662;2022-10-23T13:21:13;2.72;;;2.45;;
72676;SDS011;60755;51.374;10.662;2022-10-23T13:23:42;2.63;;;2.40;;
72676;SDS011;60755;51.374;10.662;2022-10-23T13:26:23;3.30;;;1.90;;
72676;SDS011;60755;51.374;10.662;2022-10-23T13:28:56;2.55;;;2.35;;
72676;SDS011;60755;51.374;10.662;2022-10-23T13:31:24;3.03;;;2.15;;
72676;SDS011;60755;51.374;10.662;2022-10-23T13:36:52;2.30;;;2.13;;
72676;SDS011;60755;51.374;10.662;2022-10-23T13:39:21;3.88;;;2.60;;
72676;SDS011;60755;51.374;10.662;2022-10-23T13:41:49;3.42;;;3.10;;
72676;SDS011;60755;51.374;10.662;2022-10-23T13:44:17;2.50;;;2.40;;
72676;SDS011;60755;51.374;10.662;2022-10-23T13:46:46;2.30;;;2.20;;
72676;SDS011;60755;51.374;10.662;2022-10-23T13:49:13;2.67;;;2.10;;
72676;SDS011;60755;51.374;10.662;2022-10-23T13:51:41;2.80;;;2.00;;
72676;SDS011;60755;51.374;10.662;2022-10-23T13:54:13;3.22;;;1.83;;
72676;SDS011;60755;51.374;10.662;2022-10-23T13:56:41;2.20;;;2.10;;
72676;SDS011;60755;51.374;10.662;2022-10-23T13:59:08;1.90;;;1.80;;
72676;SDS011;60755;51.374;10.662;2022-10-23T14:01:37;3.05;;;1.80;;
72676;SDS011;60755;51.374;10.662;2022-10-23T14:04:04;1.92;;;1.80;;
72676;SDS011;60755;51.374;10.662;2022-10-23T14:06:31;2.20;;;1.90;;
72676;SDS011;60755;51.374;10.662;2022-10-23T14:08:58;3.10;;;1.80;;
72676;SDS011;60755;51.374;10.662;2022-10-23T14:11:25;2.55;;;2.33;;
72676;SDS011;60755;51.374;10.662;2022-10-23T14:13:51;2.10;;;1.98;;
72676;SDS011;60755;51.374;10.662;2022-10-23T14:16:18;2.10;;;2.00;;
72676;SDS011;60755;51.374;10.662;2022-10-23T14:18:47;3.15;;;1.90;;
72676;SDS011;60755;51.374;10.662;2022-10-23T14:21:14;2.40;;;2.20;;
72676;SDS011;60755;51.374;10.662;2022-10-23T14:23:41;7.82;;;2.03;;
72676;SDS011;60755;51.374;10.662;2022-10-23T14:26:09;1.98;;;1.88;;
72676;SDS011;60755;51.374;10.662;2022-10-23T14:28:37;2.50;;;2.10;;
72676;SDS011;60755;51.374;10.662;2022-10-23T14:31:04;5.05;;;2.45;;
72676;SDS011;60755;51.374;10.662;2022-10-23T14:33:31;1.88;;;1.88;;
72676;SDS011;60755;51.374;10.662;2022-10-23T14:36:00;2.00;;;1.90;;
72676;SDS011;60755;51.374;10.662;2022-10-23T14:38:26;2.10;;;2.00;;
72676;SDS011;60755;51.374;10.662;2022-10-23T14:40:53;1.90;;;1.70;;
72676;SDS011;60755;51.374;10.662;2022-10-23T14:43:20;2.63;;;1.90;;
72676;SDS011;60755;51.374;10.662;2022-10-23T14:45:47;3.13;;;2.10;;
72676;SDS011;60755;51.374;10.662;2022-10-23T14:48:14;2.10;;;2.00;;